Rio Mayo, Argentina
Current Conditions -  °F | °C
As of 2:00 AM on Thursday 27 Nov 2014 (Local Time) from SCBA Reporting Station
Overcast Overcast  
Wind Chill: 38°   Ceiling: 11000
Heat Index: 45°   Visibility: 6mi
Dew Point: 36°   Wind: 13mph
Humidity: 71%   Direction: 330°NNW
Pressure: 29.91"   Gusts: NA
Location:  45.68°S, 70.27°W
Report Text: SCBA 270500Z AUTO 33011KT 9999 OVC110 07/02 Q1013
Loading
Personal Weather Stations






























Interactive Weather Map New forecast layout! Learn more

10-Day Weather Forecast

Advertisements
Track Severe Weather on mobile